sensor_id;sensor_type;location;lat;lon;timestamp;P1;durP1;ratioP1;P2;durP2;ratioP2
31282;SDS011;17915;52.540;13.604;2023-02-01T00:01:42;33.53;;;7.03;;
31282;SDS011;17915;52.540;13.604;2023-02-01T00:04:08;29.77;;;4.17;;
31282;SDS011;17915;52.540;13.604;2023-02-01T00:06:33;27.10;;;6.90;;
31282;SDS011;17915;52.540;13.604;2023-02-01T00:08:59;43.30;;;8.30;;
31282;SDS011;17915;52.540;13.604;2023-02-01T00:11:25;32.35;;;6.57;;
31282;SDS011;17915;52.540;13.604;2023-02-01T00:13:51;30.50;;;5.20;;
31282;SDS011;17915;52.540;13.604;2023-02-01T00:16:18;19.92;;;4.35;;
31282;SDS011;17915;52.540;13.604;2023-02-01T00:18:46;31.30;;;5.63;;
31282;SDS011;17915;52.540;13.604;2023-02-01T00:21:16;36.47;;;7.35;;
31282;SDS011;17915;52.540;13.604;2023-02-01T00:23:44;20.20;;;5.22;;
31282;SDS011;17915;52.540;13.604;2023-02-01T00:26:16;31.67;;;4.63;;
31282;SDS011;17915;52.540;13.604;2023-02-01T00:29:03;25.73;;;4.07;;
31282;SDS011;17915;52.540;13.604;2023-02-01T00:31:29;22.17;;;5.65;;
31282;SDS011;17915;52.540;13.604;2023-02-01T00:33:55;19.13;;;3.47;;
31282;SDS011;17915;52.540;13.604;2023-02-01T00:36:20;36.30;;;6.90;;
31282;SDS011;17915;52.540;13.604;2023-02-01T00:38:46;32.47;;;4.93;;
31282;SDS011;17915;52.540;13.604;2023-02-01T00:41:12;28.90;;;6.40;;
31282;SDS011;17915;52.540;13.604;2023-02-01T00:43:39;27.98;;;6.38;;
31282;SDS011;17915;52.540;13.604;2023-02-01T00:46:05;43.77;;;7.77;;
31282;SDS011;17915;52.540;13.604;2023-02-01T00:48:30;27.40;;;5.17;;
31282;SDS011;17915;52.540;13.604;2023-02-01T00:50:59;28.37;;;9.03;;
31282;SDS011;17915;52.540;13.604;2023-02-01T00:53:25;32.55;;;5.65;;
31282;SDS011;17915;52.540;13.604;2023-02-01T00:55:51;15.40;;;4.90;;
31282;SDS011;17915;52.540;13.604;2023-02-01T00:58:16;23.07;;;4.17;;
31282;SDS011;17915;52.540;13.604;2023-02-01T01:00:42;28.67;;;5.30;;
31282;SDS011;17915;52.540;13.604;2023-02-01T01:03:07;28.90;;;5.03;;
31282;SDS011;17915;52.540;13.604;2023-02-01T01:05:46;16.17;;;3.47;;
31282;SDS011;17915;52.540;13.604;2023-02-01T01:08:12;28.10;;;4.68;;
31282;SDS011;17915;52.540;13.604;2023-02-01T01:10:38;21.13;;;3.88;;
31282;SDS011;17915;52.540;13.604;2023-02-01T01:13:04;23.05;;;3.47;;
31282;SDS011;17915;52.540;13.604;2023-02-01T01:15:29;28.30;;;4.50;;
31282;SDS011;17915;52.540;13.604;2023-02-01T01:17:55;20.13;;;5.13;;
31282;SDS011;17915;52.540;13.604;2023-02-01T01:20:20;17.77;;;3.63;;
31282;SDS011;17915;52.540;13.604;2023-02-01T01:22:47;24.05;;;4.85;;
31282;SDS011;17915;52.540;13.604;2023-02-01T01:25:12;21.35;;;3.63;;
31282;SDS011;17915;52.540;13.604;2023-02-01T01:27:38;12.60;;;4.03;;
31282;SDS011;17915;52.540;13.604;2023-02-01T01:30:03;14.67;;;3.00;;
31282;SDS011;17915;52.540;13.604;2023-02-01T01:32:29;24.70;;;4.68;;
31282;SDS011;17915;52.540;13.604;2023-02-01T01:34:55;18.80;;;3.47;;
31282;SDS011;17915;52.540;13.604;2023-02-01T01:37:20;18.50;;;4.37;;
31282;SDS011;17915;52.540;13.604;2023-02-01T01:39:45;24.27;;;3.83;;
31282;SDS011;17915;52.540;13.604;2023-02-01T01:42:11;21.47;;;3.77;;
31282;SDS011;17915;52.540;13.604;2023-02-01T01:47:23;22.75;;;5.03;;
31282;SDS011;17915;52.540;13.604;2023-02-01T01:49:50;24.65;;;4.60;;
31282;SDS011;17915;52.540;13.604;2023-02-01T01:52:15;18.90;;;4.37;;
31282;SDS011;17915;52.540;13.604;2023-02-01T01:54:42;43.00;;;5.90;;
31282;SDS011;17915;52.540;13.604;2023-02-01T01:57:12;28.23;;;4.88;;
31282;SDS011;17915;52.540;13.604;2023-02-01T02:00:09;13.27;;;5.03;;
31282;SDS011;17915;52.540;13.604;2023-02-01T02:02:36;23.60;;;3.75;;
31282;SDS011;17915;52.540;13.604;2023-02-01T02:05:02;13.90;;;4.45;;
31282;SDS011;17915;52.540;13.604;2023-02-01T02:07:30;26.65;;;5.30;;
31282;SDS011;17915;52.540;13.604;2023-02-01T02:09:57;25.73;;;3.53;;
31282;SDS011;17915;52.540;13.604;2023-02-01T02:12:22;26.70;;;4.00;;
31282;SDS011;17915;52.540;13.604;2023-02-01T02:14:47;11.80;;;4.23;;
31282;SDS011;17915;52.540;13.604;2023-02-01T02:42:26;21.98;;;5.47;;
31282;SDS011;17915;52.540;13.604;2023-02-01T02:45:23;29.05;;;3.92;;
31282;SDS011;17915;52.540;13.604;2023-02-01T02:50:38;19.23;;;3.78;;
31282;SDS011;17915;52.540;13.604;2023-02-01T02:56:20;17.45;;;3.25;;
31282;SDS011;17915;52.540;13.604;2023-02-01T02:59:05;27.35;;;7.85;;
31282;SDS011;17915;52.540;13.604;2023-02-01T03:01:51;37.67;;;5.60;;
31282;SDS011;17915;52.540;13.604;2023-02-01T03:04:34;23.48;;;3.88;;
31282;SDS011;17915;52.540;13.604;2023-02-01T03:07:13;24.70;;;5.37;;
31282;SDS011;17915;52.540;13.604;2023-02-01T03:09:41;39.63;;;4.63;;
31282;SDS011;17915;52.540;13.604;2023-02-01T03:12:10;32.97;;;4.63;;
31282;SDS011;17915;52.540;13.604;2023-02-01T03:14:57;13.95;;;3.65;;
31282;SDS011;17915;52.540;13.604;2023-02-01T03:17:30;19.85;;;4.55;;
31282;SDS011;17915;52.540;13.604;2023-02-01T03:19:59;32.25;;;4.20;;
31282;SDS011;17915;52.540;13.604;2023-02-01T03:22:27;25.38;;;5.05;;
31282;SDS011;17915;52.540;13.604;2023-02-01T03:24:59;36.78;;;4.85;;
31282;SDS011;17915;52.540;13.604;2023-02-01T03:27:40;18.95;;;3.92;;
31282;SDS011;17915;52.540;13.604;2023-02-01T03:30:20;30.08;;;4.40;;
31282;SDS011;17915;52.540;13.604;2023-02-01T03:32:47;21.63;;;4.82;;
31282;SDS011;17915;52.540;13.604;2023-02-01T03:38:22;25.00;;;4.55;;
31282;SDS011;17915;52.540;13.604;2023-02-01T03:40:55;34.20;;;5.57;;
31282;SDS011;17915;52.540;13.604;2023-02-01T03:43:26;20.45;;;4.90;;
31282;SDS011;17915;52.540;13.604;2023-02-01T03:48:19;28.67;;;6.03;;
31282;SDS011;17915;52.540;13.604;2023-02-01T03:50:48;36.33;;;4.63;;
31282;SDS011;17915;52.540;13.604;2023-02-01T03:53:17;16.40;;;4.13;;
31282;SDS011;17915;52.540;13.604;2023-02-01T03:55:45;28.88;;;4.30;;
31282;SDS011;17915;52.540;13.604;2023-02-01T03:58:15;46.78;;;6.47;;
31282;SDS011;17915;52.540;13.604;2023-02-01T04:00:46;31.17;;;4.82;;
31282;SDS011;17915;52.540;13.604;2023-02-01T04:03:15;27.23;;;6.78;;
31282;SDS011;17915;52.540;13.604;2023-02-01T04:05:41;37.63;;;7.57;;
31282;SDS011;17915;52.540;13.604;2023-02-01T04:08:06;22.83;;;6.77;;
31282;SDS011;17915;52.540;13.604;2023-02-01T04:10:31;16.70;;;4.63;;
31282;SDS011;17915;52.540;13.604;2023-02-01T04:12:57;29.97;;;5.20;;
31282;SDS011;17915;52.540;13.604;2023-02-01T04:15:22;28.87;;;5.97;;
31282;SDS011;17915;52.540;13.604;2023-02-01T04:17:48;28.20;;;5.17;;
31282;SDS011;17915;52.540;13.604;2023-02-01T04:20:13;40.73;;;4.70;;
31282;SDS011;17915;52.540;13.604;2023-02-01T04:22:38;32.87;;;5.63;;
31282;SDS011;17915;52.540;13.604;2023-02-01T04:25:04;27.50;;;6.33;;
31282;SDS011;17915;52.540;13.604;2023-02-01T04:27:33;24.23;;;6.22;;
31282;SDS011;17915;52.540;13.604;2023-02-01T04:29:58;26.98;;;5.38;;
31282;SDS011;17915;52.540;13.604;2023-02-01T04:32:24;20.47;;;3.93;;
31282;SDS011;17915;52.540;13.604;2023-02-01T04:34:49;23.53;;;4.43;;
31282;SDS011;17915;52.540;13.604;2023-02-01T04:37:15;20.77;;;4.73;;
31282;SDS011;17915;52.540;13.604;2023-02-01T04:39:40;42.67;;;6.80;;
31282;SDS011;17915;52.540;13.604;2023-02-01T04:42:05;28.47;;;4.40;;
31282;SDS011;17915;52.540;13.604;2023-02-01T04:44:31;26.37;;;5.10;;
31282;SDS011;17915;52.540;13.604;2023-02-01T04:46:56;35.77;;;5.70;;
31282;SDS011;17915;52.540;13.604;2023-02-01T04:49:21;25.23;;;6.50;;
31282;SDS011;17915;52.540;13.604;2023-02-01T04:51:47;34.67;;;6.83;;
31282;SDS011;17915;52.540;13.604;2023-02-01T04:54:13;23.92;;;5.90;;
31282;SDS011;17915;52.540;13.604;2023-02-01T04:56:38;15.07;;;4.10;;
31282;SDS011;17915;52.540;13.604;2023-02-01T04:59:04;36.47;;;4.60;;
31282;SDS011;17915;52.540;13.604;2023-02-01T05:01:30;41.90;;;6.10;;
31282;SDS011;17915;52.540;13.604;2023-02-01T05:03:55;19.47;;;5.63;;
31282;SDS011;17915;52.540;13.604;2023-02-01T05:06:21;24.60;;;4.37;;
31282;SDS011;17915;52.540;13.604;2023-02-01T05:08:46;23.52;;;4.43;;
31282;SDS011;17915;52.540;13.604;2023-02-01T05:11:12;32.27;;;4.77;;
31282;SDS011;17915;52.540;13.604;2023-02-01T05:13:56;26.45;;;5.10;;
31282;SDS011;17915;52.540;13.604;2023-02-01T05:16:21;34.93;;;6.73;;
31282;SDS011;17915;52.540;13.604;2023-02-01T05:18:47;14.60;;;5.10;;
31282;SDS011;17915;52.540;13.604;2023-02-01T05:21:12;25.07;;;3.40;;
31282;SDS011;17915;52.540;13.604;2023-02-01T05:23:37;26.50;;;4.27;;
31282;SDS011;17915;52.540;13.604;2023-02-01T05:26:23;30.67;;;4.57;;
31282;SDS011;17915;52.540;13.604;2023-02-01T05:28:49;21.52;;;4.13;;
31282;SDS011;17915;52.540;13.604;2023-02-01T05:31:14;44.27;;;4.67;;
31282;SDS011;17915;52.540;13.604;2023-02-01T05:33:40;31.43;;;6.43;;
31282;SDS011;17915;52.540;13.604;2023-02-01T05:36:05;30.10;;;5.50;;
31282;SDS011;17915;52.540;13.604;2023-02-01T05:38:31;28.87;;;5.40;;
31282;SDS011;17915;52.540;13.604;2023-02-01T05:40:56;21.37;;;5.23;;
31282;SDS011;17915;52.540;13.604;2023-02-01T05:43:22;28.47;;;3.93;;
31282;SDS011;17915;52.540;13.604;2023-02-01T05:45:47;22.07;;;3.97;;
31282;SDS011;17915;52.540;13.604;2023-02-01T05:48:12;30.27;;;4.40;;
31282;SDS011;17915;52.540;13.604;2023-02-01T05:50:38;19.90;;;3.97;;
31282;SDS011;17915;52.540;13.604;2023-02-01T05:53:03;25.17;;;4.53;;
31282;SDS011;17915;52.540;13.604;2023-02-01T05:55:29;22.60;;;3.90;;
31282;SDS011;17915;52.540;13.604;2023-02-01T05:57:54;23.17;;;4.60;;
31282;SDS011;17915;52.540;13.604;2023-02-01T06:00:20;23.40;;;4.67;;
31282;SDS011;17915;52.540;13.604;2023-02-01T06:02:46;28.33;;;5.05;;
31282;SDS011;17915;52.540;13.604;2023-02-01T06:05:11;26.03;;;5.60;;
31282;SDS011;17915;52.540;13.604;2023-02-01T06:07:36;30.97;;;5.90;;
31282;SDS011;17915;52.540;13.604;2023-02-01T06:10:02;24.27;;;6.07;;
31282;SDS011;17915;52.540;13.604;2023-02-01T06:12:28;28.83;;;5.33;;
31282;SDS011;17915;52.540;13.604;2023-02-01T06:14:53;26.93;;;5.57;;
31282;SDS011;17915;52.540;13.604;2023-02-01T06:17:18;25.93;;;4.67;;
31282;SDS011;17915;52.540;13.604;2023-02-01T06:19:44;27.03;;;4.93;;
31282;SDS011;17915;52.540;13.604;2023-02-01T06:22:09;32.23;;;6.33;;
31282;SDS011;17915;52.540;13.604;2023-02-01T06:24:35;20.33;;;3.93;;
31282;SDS011;17915;52.540;13.604;2023-02-01T06:27:00;26.20;;;5.73;;
31282;SDS011;17915;52.540;13.604;2023-02-01T06:29:26;40.97;;;6.00;;
31282;SDS011;17915;52.540;13.604;2023-02-01T06:31:51;23.13;;;5.23;;
31282;SDS011;17915;52.540;13.604;2023-02-01T06:34:17;14.70;;;3.40;;
31282;SDS011;17915;52.540;13.604;2023-02-01T06:36:42;25.52;;;5.38;;
31282;SDS011;17915;52.540;13.604;2023-02-01T06:39:08;18.83;;;4.50;;
31282;SDS011;17915;52.540;13.604;2023-02-01T06:41:33;22.93;;;3.63;;
31282;SDS011;17915;52.540;13.604;2023-02-01T06:43:59;28.38;;;5.13;;
31282;SDS011;17915;52.540;13.604;2023-02-01T06:46:25;31.10;;;4.32;;
31282;SDS011;17915;52.540;13.604;2023-02-01T06:48:51;12.47;;;4.40;;
31282;SDS011;17915;52.540;13.604;2023-02-01T06:51:20;30.20;;;5.60;;
31282;SDS011;17915;52.540;13.604;2023-02-01T06:53:50;25.55;;;3.83;;
31282;SDS011;17915;52.540;13.604;2023-02-01T06:56:16;15.05;;;4.25;;
31282;SDS011;17915;52.540;13.604;2023-02-01T06:58:42;22.92;;;4.35;;
31282;SDS011;17915;52.540;13.604;2023-02-01T07:01:08;20.57;;;4.93;;
31282;SDS011;17915;52.540;13.604;2023-02-01T07:03:34;31.92;;;4.72;;
31282;SDS011;17915;52.540;13.604;2023-02-01T07:05:59;32.10;;;6.90;;
31282;SDS011;17915;52.540;13.604;2023-02-01T07:08:29;24.80;;;6.57;;
31282;SDS011;17915;52.540;13.604;2023-02-01T07:10:55;23.75;;;7.75;;
31282;SDS011;17915;52.540;13.604;2023-02-01T07:13:20;20.87;;;4.77;;
31282;SDS011;17915;52.540;13.604;2023-02-01T07:15:45;22.43;;;4.17;;
31282;SDS011;17915;52.540;13.604;2023-02-01T07:18:16;23.50;;;3.90;;
31282;SDS011;17915;52.540;13.604;2023-02-01T07:20:42;23.50;;;4.93;;
31282;SDS011;17915;52.540;13.604;2023-02-01T07:23:10;19.83;;;3.90;;
31282;SDS011;17915;52.540;13.604;2023-02-01T07:25:36;22.23;;;4.68;;
31282;SDS011;17915;52.540;13.604;2023-02-01T07:28:01;19.77;;;4.17;;
31282;SDS011;17915;52.540;13.604;2023-02-01T07:30:27;29.67;;;8.47;;
31282;SDS011;17915;52.540;13.604;2023-02-01T07:32:52;17.50;;;4.90;;
31282;SDS011;17915;52.540;13.604;2023-02-01T07:35:18;23.40;;;4.03;;
31282;SDS011;17915;52.540;13.604;2023-02-01T07:37:43;18.33;;;6.10;;
31282;SDS011;17915;52.540;13.604;2023-02-01T07:40:08;20.63;;;4.40;;
31282;SDS011;17915;52.540;13.604;2023-02-01T07:42:34;22.98;;;3.83;;
31282;SDS011;17915;52.540;13.604;2023-02-01T07:45:00;22.63;;;4.40;;
31282;SDS011;17915;52.540;13.604;2023-02-01T07:47:27;25.77;;;3.45;;
31282;SDS011;17915;52.540;13.604;2023-02-01T07:49:52;16.43;;;4.20;;
31282;SDS011;17915;52.540;13.604;2023-02-01T07:52:18;10.60;;;3.20;;
31282;SDS011;17915;52.540;13.604;2023-02-01T07:54:43;25.17;;;3.37;;
31282;SDS011;17915;52.540;13.604;2023-02-01T07:57:08;15.00;;;4.83;;
31282;SDS011;17915;52.540;13.604;2023-02-01T07:59:36;20.77;;;4.47;;
31282;SDS011;17915;52.540;13.604;2023-02-01T08:02:21;21.05;;;4.68;;
31282;SDS011;17915;52.540;13.604;2023-02-01T08:04:47;22.77;;;5.93;;
31282;SDS011;17915;52.540;13.604;2023-02-01T08:07:12;17.43;;;3.60;;
31282;SDS011;17915;52.540;13.604;2023-02-01T08:09:37;24.20;;;4.93;;
31282;SDS011;17915;52.540;13.604;2023-02-01T08:12:03;17.50;;;4.93;;
31282;SDS011;17915;52.540;13.604;2023-02-01T08:14:28;19.40;;;3.63;;
31282;SDS011;17915;52.540;13.604;2023-02-01T08:16:54;11.63;;;3.20;;
31282;SDS011;17915;52.540;13.604;2023-02-01T08:19:19;7.90;;;4.60;;
31282;SDS011;17915;52.540;13.604;2023-02-01T08:21:44;11.10;;;3.93;;
31282;SDS011;17915;52.540;13.604;2023-02-01T08:24:11;14.40;;;3.60;;
31282;SDS011;17915;52.540;13.604;2023-02-01T08:26:36;17.37;;;3.63;;
31282;SDS011;17915;52.540;13.604;2023-02-01T08:29:02;12.43;;;3.70;;
31282;SDS011;17915;52.540;13.604;2023-02-01T08:31:29;10.82;;;2.55;;
31282;SDS011;17915;52.540;13.604;2023-02-01T08:33:59;10.30;;;3.55;;
31282;SDS011;17915;52.540;13.604;2023-02-01T08:36:26;18.50;;;3.85;;
31282;SDS011;17915;52.540;13.604;2023-02-01T08:38:53;13.82;;;4.57;;
31282;SDS011;17915;52.540;13.604;2023-02-01T08:41:20;25.10;;;4.60;;
31282;SDS011;17915;52.540;13.604;2023-02-01T08:43:47;14.43;;;3.08;;
31282;SDS011;17915;52.540;13.604;2023-02-01T08:46:13;26.48;;;4.97;;
31282;SDS011;17915;52.540;13.604;2023-02-01T08:48:38;18.87;;;4.37;;
31282;SDS011;17915;52.540;13.604;2023-02-01T08:51:04;14.27;;;4.10;;
31282;SDS011;17915;52.540;13.604;2023-02-01T08:53:34;9.70;;;3.55;;
31282;SDS011;17915;52.540;13.604;2023-02-01T08:56:01;13.75;;;4.40;;
31282;SDS011;17915;52.540;13.604;2023-02-01T08:58:27;14.48;;;3.35;;
31282;SDS011;17915;52.540;13.604;2023-02-01T09:00:52;10.87;;;4.13;;
31282;SDS011;17915;52.540;13.604;2023-02-01T09:03:17;11.07;;;4.63;;
31282;SDS011;17915;52.540;13.604;2023-02-01T09:05:43;9.87;;;2.77;;
31282;SDS011;17915;52.540;13.604;2023-02-01T09:10:36;11.10;;;2.58;;
31282;SDS011;17915;52.540;13.604;2023-02-01T09:13:01;3.90;;;2.67;;
31282;SDS011;17915;52.540;13.604;2023-02-01T09:15:28;11.02;;;3.20;;
31282;SDS011;17915;52.540;13.604;2023-02-01T09:17:53;20.07;;;5.67;;
31282;SDS011;17915;52.540;13.604;2023-02-01T09:20:18;11.80;;;3.60;;
31282;SDS011;17915;52.540;13.604;2023-02-01T09:25:10;7.05;;;2.95;;
31282;SDS011;17915;52.540;13.604;2023-02-01T09:27:36;8.80;;;2.67;;
31282;SDS011;17915;52.540;13.604;2023-02-01T09:30:01;4.83;;;2.17;;
31282;SDS011;17915;52.540;13.604;2023-02-01T09:32:28;19.67;;;4.65;;
31282;SDS011;17915;52.540;13.604;2023-02-01T09:34:54;6.60;;;2.13;;
31282;SDS011;17915;52.540;13.604;2023-02-01T09:37:19;12.30;;;2.53;;
31282;SDS011;17915;52.540;13.604;2023-02-01T09:39:45;9.00;;;3.00;;
31282;SDS011;17915;52.540;13.604;2023-02-01T09:47:26;12.88;;;3.75;;
31282;SDS011;17915;52.540;13.604;2023-02-01T09:49:56;10.23;;;4.45;;
31282;SDS011;17915;52.540;13.604;2023-02-01T09:52:36;13.38;;;3.53;;
31282;SDS011;17915;52.540;13.604;2023-02-01T09:55:13;3.35;;;1.73;;
31282;SDS011;17915;52.540;13.604;2023-02-01T09:57:55;4.50;;;1.80;;
31282;SDS011;17915;52.540;13.604;2023-02-01T10:00:43;2.58;;;1.42;;
31282;SDS011;17915;52.540;13.604;2023-02-01T10:03:20;9.07;;;2.13;;
31282;SDS011;17915;52.540;13.604;2023-02-01T10:05:59;2.47;;;1.40;;
31282;SDS011;17915;52.540;13.604;2023-02-01T10:11:38;3.83;;;1.30;;
31282;SDS011;17915;52.540;13.604;2023-02-01T10:27:41;9.00;;;1.60;;
31282;SDS011;17915;52.540;13.604;2023-02-01T10:30:05;4.88;;;1.75;;
31282;SDS011;17915;52.540;13.604;2023-02-01T10:32:38;5.07;;;1.58;;
31282;SDS011;17915;52.540;13.604;2023-02-01T10:35:13;2.90;;;2.10;;
31282;SDS011;17915;52.540;13.604;2023-02-01T10:37:42;2.88;;;1.50;;
31282;SDS011;17915;52.540;13.604;2023-02-01T10:40:19;9.32;;;2.08;;
31282;SDS011;17915;52.540;13.604;2023-02-01T10:42:47;7.20;;;1.70;;
31282;SDS011;17915;52.540;13.604;2023-02-01T10:47:40;5.40;;;2.45;;
31282;SDS011;17915;52.540;13.604;2023-02-01T10:58:18;7.15;;;2.58;;
31282;SDS011;17915;52.540;13.604;2023-02-01T11:00:55;14.70;;;3.85;;
31282;SDS011;17915;52.540;13.604;2023-02-01T11:08:57;1.67;;;1.20;;
31282;SDS011;17915;52.540;13.604;2023-02-01T11:11:23;4.10;;;1.77;;
31282;SDS011;17915;52.540;13.604;2023-02-01T11:16:35;5.38;;;1.80;;
31282;SDS011;17915;52.540;13.604;2023-02-01T11:19:02;6.22;;;1.80;;
31282;SDS011;17915;52.540;13.604;2023-02-01T11:21:28;10.55;;;3.03;;
31282;SDS011;17915;52.540;13.604;2023-02-01T11:23:53;6.20;;;2.07;;
31282;SDS011;17915;52.540;13.604;2023-02-01T11:26:21;7.53;;;2.43;;
31282;SDS011;17915;52.540;13.604;2023-02-01T11:29:22;6.35;;;2.30;;
31282;SDS011;17915;52.540;13.604;2023-02-01T11:31:42;4.13;;;2.00;;
31282;SDS011;17915;52.540;13.604;2023-02-01T11:34:14;6.45;;;3.28;;
31282;SDS011;17915;52.540;13.604;2023-02-01T11:36:41;4.57;;;2.65;;
31282;SDS011;17915;52.540;13.604;2023-02-01T11:39:29;15.02;;;3.42;;
31282;SDS011;17915;52.540;13.604;2023-02-01T11:44:41;14.30;;;3.25;;
31282;SDS011;17915;52.540;13.604;2023-02-01T11:50:16;18.15;;;2.65;;
31282;SDS011;17915;52.540;13.604;2023-02-01T12:20:41;8.25;;;2.45;;
31282;SDS011;17915;52.540;13.604;2023-02-01T12:26:00;7.85;;;2.67;;
31282;SDS011;17915;52.540;13.604;2023-02-01T12:31:32;17.17;;;2.53;;
31282;SDS011;17915;52.540;13.604;2023-02-01T12:39:57;6.70;;;2.30;;
31282;SDS011;17915;52.540;13.604;2023-02-01T12:42:45;15.32;;;3.30;;
31282;SDS011;17915;52.540;13.604;2023-02-01T12:50:54;11.77;;;2.85;;
31282;SDS011;17915;52.540;13.604;2023-02-01T12:53:30;9.40;;;3.35;;
31282;SDS011;17915;52.540;13.604;2023-02-01T12:56:11;7.10;;;2.10;;
31282;SDS011;17915;52.540;13.604;2023-02-01T12:58:45;8.90;;;2.67;;
31282;SDS011;17915;52.540;13.604;2023-02-01T13:01:35;22.15;;;7.57;;
31282;SDS011;17915;52.540;13.604;2023-02-01T13:04:14;6.40;;;2.55;;
31282;SDS011;17915;52.540;13.604;2023-02-01T13:09:49;13.85;;;2.80;;
31282;SDS011;17915;52.540;13.604;2023-02-01T13:12:22;3.45;;;1.67;;
31282;SDS011;17915;52.540;13.604;2023-02-01T13:14:56;3.83;;;1.77;;
31282;SDS011;17915;52.540;13.604;2023-02-01T13:17:24;0.60;;;0.60;;
31282;SDS011;17915;52.540;13.604;2023-02-01T13:19:54;0.90;;;0.90;;
31282;SDS011;17915;52.540;13.604;2023-02-01T13:22:28;1.38;;;0.65;;
31282;SDS011;17915;52.540;13.604;2023-02-01T13:24:57;0.75;;;0.60;;
31282;SDS011;17915;52.540;13.604;2023-02-01T13:27:28;2.20;;;0.93;;
31282;SDS011;17915;52.540;13.604;2023-02-01T13:29:58;1.65;;;1.10;;
31282;SDS011;17915;52.540;13.604;2023-02-01T13:32:34;0.55;;;0.55;;
31282;SDS011;17915;52.540;13.604;2023-02-01T13:35:20;1.40;;;1.23;;
31282;SDS011;17915;52.540;13.604;2023-02-01T13:40:47;3.35;;;1.58;;
31282;SDS011;17915;52.540;13.604;2023-02-01T13:43:16;2.78;;;1.13;;
31282;SDS011;17915;52.540;13.604;2023-02-01T13:45:50;1.25;;;1.15;;
31282;SDS011;17915;52.540;13.604;2023-02-01T13:48:21;4.93;;;1.25;;
31282;SDS011;17915;52.540;13.604;2023-02-01T13:50:53;2.95;;;1.95;;
31282;SDS011;17915;52.540;13.604;2023-02-01T13:53:23;11.30;;;2.15;;
31282;SDS011;17915;52.540;13.604;2023-02-01T13:55:57;5.20;;;2.67;;
31282;SDS011;17915;52.540;13.604;2023-02-01T13:58:33;3.85;;;1.95;;
31282;SDS011;17915;52.540;13.604;2023-02-01T14:03:50;13.15;;;2.67;;
31282;SDS011;17915;52.540;13.604;2023-02-01T14:11:41;17.90;;;3.08;;
31282;SDS011;17915;52.540;13.604;2023-02-01T14:16:38;13.53;;;3.90;;
31282;SDS011;17915;52.540;13.604;2023-02-01T14:19:06;17.53;;;2.80;;
31282;SDS011;17915;52.540;13.604;2023-02-01T14:21:34;16.08;;;4.93;;
31282;SDS011;17915;52.540;13.604;2023-02-01T14:26:49;23.13;;;4.22;;
31282;SDS011;17915;52.540;13.604;2023-02-01T14:31:51;7.47;;;3.77;;
31282;SDS011;17915;52.540;13.604;2023-02-01T14:34:18;26.42;;;3.92;;
31282;SDS011;17915;52.540;13.604;2023-02-01T14:36:50;8.65;;;2.85;;
31282;SDS011;17915;52.540;13.604;2023-02-01T14:41:55;10.77;;;2.92;;
31282;SDS011;17915;52.540;13.604;2023-02-01T14:44:24;13.68;;;3.28;;
31282;SDS011;17915;52.540;13.604;2023-02-01T14:49:30;13.75;;;3.85;;
31282;SDS011;17915;52.540;13.604;2023-02-01T14:51:57;24.40;;;3.50;;
31282;SDS011;17915;52.540;13.604;2023-02-01T14:54:23;18.75;;;5.45;;
31282;SDS011;17915;52.540;13.604;2023-02-01T14:56:49;11.80;;;2.70;;
31282;SDS011;17915;52.540;13.604;2023-02-01T14:59:16;15.18;;;4.75;;
31282;SDS011;17915;52.540;13.604;2023-02-01T15:01:48;13.50;;;3.60;;
31282;SDS011;17915;52.540;13.604;2023-02-01T15:04:16;19.98;;;3.38;;
31282;SDS011;17915;52.540;13.604;2023-02-01T15:09:32;16.30;;;3.72;;
31282;SDS011;17915;52.540;13.604;2023-02-01T15:14:39;19.75;;;4.13;;
31282;SDS011;17915;52.540;13.604;2023-02-01T15:17:22;11.48;;;2.90;;
31282;SDS011;17915;52.540;13.604;2023-02-01T15:19:52;10.45;;;3.35;;
31282;SDS011;17915;52.540;13.604;2023-02-01T15:22:21;10.38;;;3.35;;
31282;SDS011;17915;52.540;13.604;2023-02-01T15:24:53;19.60;;;5.60;;
31282;SDS011;17915;52.540;13.604;2023-02-01T15:27:22;13.02;;;4.55;;
31282;SDS011;17915;52.540;13.604;2023-02-01T15:29:48;14.15;;;4.07;;
31282;SDS011;17915;52.540;13.604;2023-02-01T15:32:29;9.77;;;4.07;;
31282;SDS011;17915;52.540;13.604;2023-02-01T15:34:56;6.53;;;2.55;;
31282;SDS011;17915;52.540;13.604;2023-02-01T15:37:22;7.13;;;2.10;;
31282;SDS011;17915;52.540;13.604;2023-02-01T15:42:39;7.78;;;2.60;;
31282;SDS011;17915;52.540;13.604;2023-02-01T15:45:28;6.78;;;2.75;;
31282;SDS011;17915;52.540;13.604;2023-02-01T15:47:55;6.35;;;3.40;;
31282;SDS011;17915;52.540;13.604;2023-02-01T15:50:22;10.02;;;3.28;;
31282;SDS011;17915;52.540;13.604;2023-02-01T15:55:31;4.25;;;2.05;;
31282;SDS011;17915;52.540;13.604;2023-02-01T15:58:04;5.20;;;1.33;;
31282;SDS011;17915;52.540;13.604;2023-02-01T16:00:41;11.73;;;2.17;;
31282;SDS011;17915;52.540;13.604;2023-02-01T16:03:23;3.85;;;1.88;;
31282;SDS011;17915;52.540;13.604;2023-02-01T16:05:59;9.27;;;1.52;;
31282;SDS011;17915;52.540;13.604;2023-02-01T16:08:27;2.63;;;1.45;;
31282;SDS011;17915;52.540;13.604;2023-02-01T16:10:54;3.63;;;1.90;;
31282;SDS011;17915;52.540;13.604;2023-02-01T16:13:25;1.30;;;1.20;;
31282;SDS011;17915;52.540;13.604;2023-02-01T16:15:51;2.23;;;1.17;;
31282;SDS011;17915;52.540;13.604;2023-02-01T16:18:16;6.67;;;1.20;;
31282;SDS011;17915;52.540;13.604;2023-02-01T16:20:42;4.40;;;1.60;;
31282;SDS011;17915;52.540;13.604;2023-02-01T16:23:08;1.53;;;1.40;;
31282;SDS011;17915;52.540;13.604;2023-02-01T16:25:34;3.33;;;1.20;;
31282;SDS011;17915;52.540;13.604;2023-02-01T16:28:00;1.48;;;0.90;;
31282;SDS011;17915;52.540;13.604;2023-02-01T16:30:26;2.27;;;1.17;;
31282;SDS011;17915;52.540;13.604;2023-02-01T16:32:52;1.13;;;1.13;;
31282;SDS011;17915;52.540;13.604;2023-02-01T16:35:23;0.70;;;0.70;;
31282;SDS011;17915;52.540;13.604;2023-02-01T16:37:50;1.05;;;0.80;;
31282;SDS011;17915;52.540;13.604;2023-02-01T16:40:16;3.47;;;1.00;;
31282;SDS011;17915;52.540;13.604;2023-02-01T16:42:42;1.45;;;1.17;;
31282;SDS011;17915;52.540;13.604;2023-02-01T16:45:08;1.00;;;1.00;;
31282;SDS011;17915;52.540;13.604;2023-02-01T16:47:34;0.90;;;0.90;;
31282;SDS011;17915;52.540;13.604;2023-02-01T16:50:01;3.97;;;1.95;;
31282;SDS011;17915;52.540;13.604;2023-02-01T16:52:27;0.90;;;0.85;;
31282;SDS011;17915;52.540;13.604;2023-02-01T16:54:52;1.30;;;1.30;;
31282;SDS011;17915;52.540;13.604;2023-02-01T16:57:18;1.20;;;1.10;;
31282;SDS011;17915;52.540;13.604;2023-02-01T16:59:47;2.10;;;1.15;;
31282;SDS011;17915;52.540;13.604;2023-02-01T17:02:14;3.58;;;1.17;;
31282;SDS011;17915;52.540;13.604;2023-02-01T17:04:40;1.13;;;1.13;;
31282;SDS011;17915;52.540;13.604;2023-02-01T17:07:06;1.42;;;1.33;;
31282;SDS011;17915;52.540;13.604;2023-02-01T17:09:35;0.85;;;0.85;;
31282;SDS011;17915;52.540;13.604;2023-02-01T17:14:26;1.20;;;1.15;;
31282;SDS011;17915;52.540;13.604;2023-02-01T17:16:52;3.50;;;1.07;;
31282;SDS011;17915;52.540;13.604;2023-02-01T17:19:19;3.13;;;1.73;;
31282;SDS011;17915;52.540;13.604;2023-02-01T17:21:48;7.18;;;1.95;;
31282;SDS011;17915;52.540;13.604;2023-02-01T17:24:16;5.80;;;1.30;;
31282;SDS011;17915;52.540;13.604;2023-02-01T17:26:43;3.80;;;2.70;;
31282;SDS011;17915;52.540;13.604;2023-02-01T17:29:09;3.65;;;1.50;;
31282;SDS011;17915;52.540;13.604;2023-02-01T17:31:36;2.53;;;1.85;;